Time;durP1;ratioP1;P1;durP2;ratioP2;P2;SDS_P1;SDS_P2;PMS_P1;PMS_P2;Temp;Humidity;BMP_temperature;BMP_pressure;BME280_temperature;BME280_humidity;BME280_pressure;Samples;Min_cycle;Max_cycle;Signal;HPM_P1;HPM_P2
2023/11/06 00:01:51;;;;;;;1.07;0.70;;;12.40;99.90;;;;;;5085801;28;20556;-62
2023/11/06 00:04:19;;;;;;;2.80;0.90;;;12.30;99.90;;;;;;5077764;28;20216;-62
2023/11/06 00:06:46;;;;;;;1.87;1.00;;;12.30;99.90;;;;;;5086015;28;20627;-62
2023/11/06 00:09:13;;;;;;;3.13;0.80;;;12.20;99.90;;;;;;5084479;28;20593;-62
2023/11/06 00:11:40;;;;;;;1.23;0.67;;;12.30;99.90;;;;;;5082389;28;20747;-61
2023/11/06 00:14:07;;;;;;;3.03;0.80;;;12.30;99.90;;;;;;5082602;28;20631;-62
2023/11/06 00:16:34;;;;;;;1.03;0.60;;;12.30;99.90;;;;;;5085595;28;20224;-62
2023/11/06 00:19:00;;;;;;;2.03;0.67;;;12.30;99.90;;;;;;5085681;28;20682;-62
2023/11/06 00:21:28;;;;;;;3.97;0.80;;;12.40;99.90;;;;;;5082442;28;20201;-63
2023/11/06 00:23:55;;;;;;;1.83;0.80;;;12.40;99.90;;;;;;5082201;28;20263;-62
2023/11/06 00:26:22;;;;;;;3.70;0.90;;;12.40;99.90;;;;;;5084736;28;20224;-62
2023/11/06 00:28:49;;;;;;;3.17;0.60;;;12.40;99.90;;;;;;5085538;28;20212;-61
2023/11/06 00:31:16;;;;;;;1.73;0.70;;;12.40;99.90;;;;;;5084099;28;20310;-64
2023/11/06 00:33:43;;;;;;;2.43;0.53;;;12.40;99.90;;;;;;5081906;28;20212;-62
2023/11/06 00:36:17;;;;;;;2.87;0.90;;;12.40;99.90;;;;;;5082445;28;20225;-62
2023/11/06 00:38:45;;;;;;;3.53;1.30;;;12.30;99.90;;;;;;5085652;28;20196;-62
2023/11/06 00:41:12;;;;;;;2.30;0.83;;;12.30;99.90;;;;;;5084209;28;20254;-62
2023/11/06 00:43:39;;;;;;;1.30;0.63;;;12.40;99.90;;;;;;5081847;28;20233;-62
2023/11/06 00:46:06;;;;;;;2.57;1.00;;;12.30;99.90;;;;;;5081707;28;20711;-61
2023/11/06 00:48:33;;;;;;;3.70;1.20;;;12.20;99.90;;;;;;5085269;28;20208;-62
2023/11/06 00:51:00;;;;;;;4.57;1.30;;;12.00;99.90;;;;;;5077677;28;20225;-62
2023/11/06 00:53:26;;;;;;;1.23;0.70;;;12.00;99.90;;;;;;5084649;28;20245;-64
2023/11/06 00:55:54;;;;;;;3.47;1.20;;;12.00;99.90;;;;;;5085245;28;20232;-62
2023/11/06 00:58:21;;;;;;;2.60;0.90;;;12.10;99.90;;;;;;5082801;28;20211;-64
2023/11/06 01:00:48;;;;;;;2.50;0.90;;;12.00;99.90;;;;;;5081532;28;20204;-61
2023/11/06 01:03:14;;;;;;;3.40;1.00;;;12.10;99.90;;;;;;5082400;28;20211;-61
2023/11/06 01:05:42;;;;;;;2.40;0.60;;;12.20;99.90;;;;;;5085364;28;20220;-62
2023/11/06 01:08:09;;;;;;;1.47;0.77;;;12.30;99.90;;;;;;5084197;28;20214;-62
2023/11/06 01:10:36;;;;;;;2.47;0.80;;;12.30;99.90;;;;;;5081135;28;20329;-62
2023/11/06 01:13:04;;;;;;;3.83;0.87;;;12.20;99.90;;;;;;5081213;28;20205;-61
2023/11/06 01:15:31;;;;;;;4.13;1.20;;;12.30;99.90;;;;;;5072923;28;20229;-62
2023/11/06 01:17:58;;;;;;;1.63;0.80;;;12.30;99.90;;;;;;5081032;28;20208;-62
2023/11/06 01:20:25;;;;;;;3.33;0.87;;;12.30;99.90;;;;;;5083754;28;20224;-62
2023/11/06 01:22:52;;;;;;;2.67;0.70;;;12.40;99.90;;;;;;5084349;28;20231;-62
2023/11/06 01:25:18;;;;;;;4.10;1.13;;;12.40;99.90;;;;;;5082749;28;20630;-62
2023/11/06 01:27:45;;;;;;;2.70;0.80;;;12.30;99.90;;;;;;5080914;28;20213;-62
2023/11/06 01:30:13;;;;;;;2.03;0.70;;;12.40;99.90;;;;;;5081741;28;20232;-64
2023/11/06 01:32:40;;;;;;;5.40;0.87;;;12.40;99.90;;;;;;5084495;28;20197;-62
2023/11/06 01:35:08;;;;;;;1.83;0.87;;;12.40;99.90;;;;;;5084116;28;20251;-63
2023/11/06 01:37:34;;;;;;;1.30;0.93;;;12.40;99.90;;;;;;5081081;28;20209;-62
2023/11/06 01:40:02;;;;;;;2.67;0.90;;;12.50;99.90;;;;;;5080926;28;20279;-63
2023/11/06 01:42:31;;;;;;;2.47;1.10;;;12.40;99.90;;;;;;5083587;28;20564;-63
2023/11/06 01:44:58;;;;;;;3.80;1.10;;;12.30;99.90;;;;;;5084045;28;20204;-63
2023/11/06 01:47:26;;;;;;;3.37;1.00;;;12.30;99.90;;;;;;5081734;28;20658;-63
2023/11/06 01:49:53;;;;;;;1.80;0.80;;;12.20;99.90;;;;;;5080375;28;20280;-63
2023/11/06 01:52:22;;;;;;;3.33;1.00;;;12.10;99.90;;;;;;5082143;28;20274;-63
2023/11/06 01:54:49;;;;;;;3.43;1.00;;;12.00;99.90;;;;;;5084147;28;20273;-64
2023/11/06 01:57:18;;;;;;;2.93;0.90;;;11.90;99.90;;;;;;5082570;28;20717;-63
2023/11/06 01:59:45;;;;;;;1.67;0.80;;;11.90;99.90;;;;;;5080735;28;20678;-63
2023/11/06 02:02:17;;;;;;;3.77;1.23;;;11.80;99.90;;;;;;5080653;28;20745;-63
2023/11/06 02:04:49;;;;;;;2.13;0.80;;;11.70;99.90;;;;;;5083738;28;20205;-63
2023/11/06 02:07:16;;;;;;;3.03;1.00;;;11.60;99.90;;;;;;5082595;28;20820;-62
2023/11/06 02:09:43;;;;;;;1.83;0.80;;;11.50;99.90;;;;;;5080141;28;20266;-63
2023/11/06 02:12:11;;;;;;;3.20;1.13;;;11.30;99.90;;;;;;5080181;28;20259;-63
2023/11/06 02:14:49;;;;;;;2.07;0.70;;;11.20;99.90;;;;;;5083724;28;20253;-63
2023/11/06 02:17:16;;;;;;;2.80;1.20;;;11.10;99.90;;;;;;5082333;28;20224;-63
2023/11/06 02:19:45;;;;;;;1.60;0.87;;;11.10;99.90;;;;;;5079538;28;20583;-62
2023/11/06 02:22:12;;;;;;;3.57;0.97;;;11.10;99.90;;;;;;5079598;28;20286;-62
2023/11/06 02:24:40;;;;;;;2.70;1.07;;;11.00;99.90;;;;;;5083426;28;20204;-62
2023/11/06 02:27:08;;;;;;;2.63;0.67;;;11.00;99.90;;;;;;5083464;28;20313;-62
2023/11/06 02:29:35;;;;;;;3.23;0.87;;;11.00;99.90;;;;;;5079675;28;20692;-62
2023/11/06 02:32:02;;;;;;;1.80;0.70;;;10.90;99.90;;;;;;5079739;28;20259;-63
2023/11/06 02:34:28;;;;;;;3.50;1.10;;;11.00;99.90;;;;;;5082593;28;20211;-63
2023/11/06 02:36:55;;;;;;;4.13;0.87;;;11.00;99.90;;;;;;5083015;28;20778;-62
2023/11/06 02:39:22;;;;;;;4.43;1.10;;;11.00;99.90;;;;;;5081053;28;20560;-63
2023/11/06 02:41:50;;;;;;;1.50;0.77;;;11.00;99.90;;;;;;5079705;28;20209;-63
2023/11/06 02:44:17;;;;;;;3.00;0.83;;;11.00;99.90;;;;;;5080785;28;20583;-63
2023/11/06 02:46:44;;;;;;;3.70;0.80;;;10.90;99.90;;;;;;5083203;28;20575;-62
2023/11/06 02:49:10;;;;;;;4.17;1.00;;;10.90;99.90;;;;;;5082713;28;20205;-62
2023/11/06 02:51:37;;;;;;;3.37;0.97;;;10.90;99.90;;;;;;5079478;28;20603;-62
2023/11/06 02:54:05;;;;;;;3.07;0.70;;;10.90;99.90;;;;;;5079574;28;20208;-63
2023/11/06 02:56:34;;;;;;;2.50;0.80;;;10.90;99.90;;;;;;5082782;28;20220;-63
2023/11/06 02:59:03;;;;;;;3.37;0.80;;;10.80;99.90;;;;;;5083056;28;20200;-63
2023/11/06 03:01:30;;;;;;;2.67;0.90;;;10.80;99.90;;;;;;5079925;28;20235;-63
2023/11/06 03:03:58;;;;;;;2.27;0.80;;;10.70;99.90;;;;;;5079426;28;20300;-63
2023/11/06 03:06:28;;;;;;;2.30;0.80;;;10.80;99.90;;;;;;5081480;28;20235;-62
2023/11/06 03:08:54;;;;;;;2.23;0.77;;;10.80;99.90;;;;;;5082752;28;20208;-63
2023/11/06 03:11:21;;;;;;;2.57;0.63;;;10.70;99.90;;;;;;5081023;28;20700;-63
2023/11/06 03:13:48;;;;;;;4.53;0.90;;;10.70;99.90;;;;;;5079282;28;20250;-62
2023/11/06 03:16:17;;;;;;;1.70;0.80;;;10.70;99.90;;;;;;5079867;28;20236;-63
2023/11/06 03:18:43;;;;;;;2.77;0.90;;;10.70;99.90;;;;;;5082765;28;20196;-63
2023/11/06 03:21:10;;;;;;;3.00;0.83;;;10.70;99.90;;;;;;5082736;28;20200;-63
2023/11/06 03:23:37;;;;;;;3.07;0.73;;;10.70;99.90;;;;;;5079285;28;20204;-63
2023/11/06 03:26:05;;;;;;;1.70;0.67;;;10.70;99.90;;;;;;5079002;28;20224;-62
2023/11/06 03:28:32;;;;;;;2.00;0.70;;;10.70;99.90;;;;;;5082173;28;20228;-63
2023/11/06 03:30:59;;;;;;;2.13;0.77;;;10.70;99.90;;;;;;5082507;28;20340;-63
2023/11/06 03:33:27;;;;;;;2.60;0.90;;;10.80;99.90;;;;;;5083433;28;20300;-63
2023/11/06 03:35:54;;;;;;;2.50;0.83;;;10.70;99.90;;;;;;5083083;28;20248;-63
2023/11/06 03:38:21;;;;;;;3.27;0.90;;;10.70;99.90;;;;;;5084663;28;20208;-63
2023/11/06 03:40:47;;;;;;;2.83;0.93;;;10.70;99.90;;;;;;5086828;28;20215;-63
2023/11/06 03:43:14;;;;;;;3.13;1.93;;;10.70;99.90;;;;;;5085650;28;20212;-63
2023/11/06 03:45:41;;;;;;;2.87;1.10;;;10.70;99.90;;;;;;5082954;28;20300;-63
2023/11/06 03:48:08;;;;;;;2.97;0.87;;;10.80;99.90;;;;;;5082986;28;20368;-63
2023/11/06 03:50:37;;;;;;;1.50;0.70;;;10.90;99.90;;;;;;5086457;28;20231;-63
2023/11/06 03:53:04;;;;;;;3.13;0.90;;;11.00;99.90;;;;;;5086071;28;20295;-63
2023/11/06 03:55:31;;;;;;;1.83;1.10;;;11.10;99.90;;;;;;5083355;28;20229;-62
2023/11/06 03:57:57;;;;;;;2.90;0.90;;;11.20;99.90;;;;;;5082808;28;20200;-63
2023/11/06 04:00:24;;;;;;;2.53;1.00;;;11.30;99.90;;;;;;5084390;28;20687;-64
2023/11/06 04:02:51;;;;;;;2.13;0.80;;;11.30;99.90;;;;;;5085905;28;20583;-64
2023/11/06 04:05:18;;;;;;;3.87;0.97;;;11.30;99.90;;;;;;5085031;28;20211;-64
2023/11/06 04:07:46;;;;;;;3.53;0.97;;;11.50;99.90;;;;;;5082893;28;20213;-64
2023/11/06 04:10:14;;;;;;;1.67;0.70;;;11.70;99.90;;;;;;5082673;28;20204;-63
2023/11/06 04:12:41;;;;;;;2.97;1.00;;;11.70;99.90;;;;;;5085602;28;20311;-62
2023/11/06 04:15:09;;;;;;;1.70;0.83;;;11.70;99.90;;;;;;5086139;28;20204;-62
2023/11/06 04:17:37;;;;;;;4.50;0.90;;;11.70;99.90;;;;;;5093182;22;20732;-58
2023/11/06 04:20:06;;;;;;;1.53;0.80;;;11.70;99.90;;;;;;5062224;28;20319;-58
2023/11/06 04:22:34;;;;;;;4.47;1.40;;;11.80;99.90;;;;;;5069969;28;20539;-58
2023/11/06 04:25:03;;;;;;;3.47;1.10;;;11.80;99.90;;;;;;5061834;28;20233;-57
2023/11/06 04:27:30;;;;;;;1.83;0.83;;;11.80;99.90;;;;;;5072742;28;20343;-58
2023/11/06 04:29:57;;;;;;;2.13;1.10;;;11.90;99.90;;;;;;5073581;28;20566;-57
2023/11/06 04:32:24;;;;;;;2.10;0.73;;;11.80;99.90;;;;;;5073389;28;20247;-58
2023/11/06 04:34:50;;;;;;;3.07;1.17;;;11.70;99.90;;;;;;5073761;28;20259;-57
2023/11/06 04:37:17;;;;;;;3.70;1.00;;;11.60;99.90;;;;;;5073400;28;20225;-57
2023/11/06 04:39:44;;;;;;;2.43;0.90;;;11.60;99.90;;;;;;5073211;28;20235;-56
2023/11/06 04:42:12;;;;;;;2.73;0.80;;;11.70;99.90;;;;;;5073340;28;20211;-57
2023/11/06 04:44:39;;;;;;;2.37;1.13;;;11.80;99.90;;;;;;5072313;28;20204;-58
2023/11/06 04:47:06;;;;;;;4.33;2.17;;;11.90;99.90;;;;;;5073403;28;20549;-57
2023/11/06 04:49:32;;;;;;;3.87;0.90;;;12.00;99.90;;;;;;5073349;28;20240;-57
2023/11/06 04:51:59;;;;;;;7.43;3.27;;;12.00;99.90;;;;;;5073061;28;20221;-57
2023/11/06 04:54:26;;;;;;;2.47;1.10;;;12.00;99.90;;;;;;5072990;28;20635;-58
2023/11/06 04:56:52;;;;;;;2.70;0.97;;;12.00;99.90;;;;;;5073009;28;20224;-57
2023/11/06 04:59:21;;;;;;;1.60;1.10;;;12.00;99.90;;;;;;5073073;28;20326;-56
2023/11/06 05:01:47;;;;;;;2.83;1.13;;;11.90;99.90;;;;;;5072877;28;20700;-59
2023/11/06 05:04:15;;;;;;;3.47;1.40;;;11.70;99.90;;;;;;5073246;28;20208;-58
2023/11/06 05:06:42;;;;;;;7.50;2.73;;;11.60;99.90;;;;;;5073102;28;20640;-58
2023/11/06 05:09:10;;;;;;;2.97;1.23;;;11.40;99.90;;;;;;5072859;28;20209;-57
2023/11/06 05:11:37;;;;;;;1.97;1.10;;;11.30;99.90;;;;;;5072871;28;20224;-57
2023/11/06 05:14:04;;;;;;;2.43;1.03;;;11.10;99.90;;;;;;5072763;28;20619;-58
2023/11/06 05:16:32;;;;;;;2.37;0.80;;;11.10;99.90;;;;;;5072777;28;20236;-57
2023/11/06 05:18:57;;;;;;;3.33;1.27;;;11.20;99.90;;;;;;5072767;28;20205;-58
2023/11/06 05:21:25;;;;;;;2.47;1.30;;;11.10;99.90;;;;;;5072625;28;20193;-59
2023/11/06 05:23:52;;;;;;;2.03;0.93;;;11.20;99.90;;;;;;5072534;28;20617;-58
2023/11/06 05:26:18;;;;;;;8.57;4.93;;;11.20;99.90;;;;;;5072738;28;20274;-59
2023/11/06 05:28:45;;;;;;;3.83;0.90;;;11.20;99.90;;;;;;5072695;28;20209;-57
2023/11/06 05:31:12;;;;;;;3.40;1.10;;;11.10;99.90;;;;;;5072714;28;20599;-57
2023/11/06 05:33:40;;;;;;;2.43;1.20;;;11.00;99.90;;;;;;5072295;28;20201;-57
2023/11/06 05:36:09;;;;;;;3.17;0.90;;;10.90;99.90;;;;;;5072210;28;20233;-58
2023/11/06 05:38:36;;;;;;;4.00;1.13;;;10.80;99.90;;;;;;5072086;28;20666;-58
2023/11/06 05:41:04;;;;;;;2.03;0.80;;;10.80;99.90;;;;;;5072309;28;20209;-57
2023/11/06 05:43:30;;;;;;;4.93;1.00;;;10.70;99.90;;;;;;5071751;28;20698;-56
2023/11/06 05:45:58;;;;;;;5.43;2.60;;;10.70;99.90;;;;;;5072128;28;20283;-56
2023/11/06 05:48:24;;;;;;;4.47;2.20;;;10.70;99.90;;;;;;5071886;28;20674;-56
2023/11/06 05:50:52;;;;;;;2.07;1.00;;;10.70;99.90;;;;;;5071920;28;20231;-57
2023/11/06 05:53:19;;;;;;;4.47;1.63;;;10.60;99.90;;;;;;5071720;28;20333;-57
2023/11/06 05:55:47;;;;;;;3.27;1.10;;;10.60;99.90;;;;;;5071739;28;20248;-57
2023/11/06 05:58:14;;;;;;;3.60;1.07;;;10.50;99.90;;;;;;5071743;28;20205;-57
2023/11/06 06:00:41;;;;;;;2.70;0.80;;;10.50;99.90;;;;;;5072105;28;20204;-58
2023/11/06 06:03:08;;;;;;;3.67;1.10;;;10.50;99.90;;;;;;5071682;28;20235;-57
2023/11/06 06:05:35;;;;;;;3.73;1.30;;;10.50;99.90;;;;;;5071656;28;20228;-59
2023/11/06 06:08:04;;;;;;;2.60;1.33;;;10.50;99.90;;;;;;5071927;28;20201;-57
2023/11/06 06:10:31;;;;;;;3.70;1.23;;;10.50;99.90;;;;;;5071446;28;20216;-57
2023/11/06 06:12:57;;;;;;;2.60;1.30;;;10.50;99.90;;;;;;5071540;28;20220;-58
2023/11/06 06:15:24;;;;;;;2.73;0.80;;;10.60;99.90;;;;;;5071415;28;20208;-58
2023/11/06 06:17:51;;;;;;;3.00;1.40;;;10.60;99.90;;;;;;5071608;28;20670;-58
2023/11/06 06:20:18;;;;;;;3.70;1.30;;;10.60;99.90;;;;;;5071486;28;20268;-59
2023/11/06 06:22:46;;;;;;;2.67;0.90;;;10.60;99.90;;;;;;5071617;28;20211;-58
2023/11/06 06:25:15;;;;;;;2.77;1.70;;;10.60;99.90;;;;;;5071585;28;20216;-58
2023/11/06 06:27:42;;;;;;;3.50;1.20;;;10.70;99.90;;;;;;5063335;28;20248;-58
2023/11/06 06:30:12;;;;;;;3.80;1.20;;;10.70;99.90;;;;;;5071273;28;20292;-57
2023/11/06 06:32:39;;;;;;;4.93;1.43;;;10.70;99.90;;;;;;5071036;28;20708;-57
2023/11/06 06:35:06;;;;;;;4.03;2.47;;;10.70;99.90;;;;;;5071732;28;20212;-58
2023/11/06 06:37:33;;;;;;;2.77;1.30;;;10.70;99.90;;;;;;5071128;28;20225;-57
2023/11/06 06:40:00;;;;;;;7.80;4.93;;;10.70;99.90;;;;;;5071157;28;20209;-58
2023/11/06 06:42:28;;;;;;;3.90;2.10;;;10.90;99.90;;;;;;5071192;28;20249;-57
2023/11/06 06:44:55;;;;;;;5.00;1.17;;;11.00;99.90;;;;;;5070886;28;20233;-57
2023/11/06 06:47:22;;;;;;;2.93;1.20;;;11.00;99.90;;;;;;5071139;28;20225;-58
2023/11/06 06:49:48;;;;;;;1.87;0.60;;;11.00;99.90;;;;;;5071251;28;20583;-57
2023/11/06 06:52:15;;;;;;;2.37;0.90;;;11.00;99.90;;;;;;5071249;28;20258;-57
2023/11/06 06:54:42;;;;;;;2.03;0.77;;;10.90;99.90;;;;;;5070894;28;20503;-58
2023/11/06 06:57:09;;;;;;;3.53;1.00;;;10.90;99.90;;;;;;5070805;28;20714;-57
2023/11/06 06:59:37;;;;;;;1.97;1.10;;;10.90;99.90;;;;;;5070700;28;20619;-58
2023/11/06 07:02:04;;;;;;;2.63;1.07;;;10.80;99.90;;;;;;5070838;28;20205;-57
2023/11/06 07:04:31;;;;;;;2.70;1.40;;;10.80;99.90;;;;;;5070666;28;20678;-57
2023/11/06 07:06:58;;;;;;;4.07;1.47;;;10.80;99.90;;;;;;5070291;28;20232;-57
2023/11/06 07:09:26;;;;;;;3.83;1.00;;;11.20;99.90;;;;;;5070861;28;20653;-58
2023/11/06 07:11:53;;;;;;;5.73;0.97;;;10.80;99.90;;;;;;5070607;28;20225;-58
2023/11/06 07:14:19;;;;;;;2.53;0.90;;;10.70;99.90;;;;;;5071360;28;20212;-57
2023/11/06 07:16:48;;;;;;;2.80;0.80;;;10.80;99.90;;;;;;5070889;28;20248;-57
2023/11/06 07:19:14;;;;;;;3.07;0.87;;;10.80;99.90;;;;;;5070776;28;20637;-58
2023/11/06 07:21:41;;;;;;;5.83;0.80;;;10.80;99.90;;;;;;5070670;28;20276;-56
2023/11/06 07:24:09;;;;;;;5.27;0.83;;;10.90;99.90;;;;;;5070384;28;20663;-56
2023/11/06 07:26:36;;;;;;;1.73;1.03;;;10.90;99.90;;;;;;5070750;28;20229;-55
2023/11/06 07:29:03;;;;;;;1.60;0.80;;;10.90;99.90;;;;;;5070900;28;20244;-56
2023/11/06 07:31:30;;;;;;;1.73;0.80;;;11.00;99.90;;;;;;5070920;28;20633;-55
2023/11/06 07:33:58;;;;;;;1.30;0.80;;;11.10;99.90;;;;;;5070669;28;20200;-56
2023/11/06 07:36:24;;;;;;;1.87;0.70;;;11.10;99.90;;;;;;5070555;28;20228;-55
2023/11/06 07:38:51;;;;;;;1.10;0.70;;;11.20;99.90;;;;;;5070760;28;20212;-56
2023/11/06 07:41:18;;;;;;;1.63;0.70;;;11.30;99.90;;;;;;5070381;28;20213;-56
2023/11/06 07:43:46;;;;;;;1.30;0.70;;;11.20;99.90;;;;;;5070625;28;20209;-56
2023/11/06 07:46:18;;;;;;;2.73;0.70;;;11.30;99.90;;;;;;5070653;28;20228;-58
2023/11/06 07:48:44;;;;;;;3.37;0.90;;;11.30;99.90;;;;;;5062791;28;20205;-57
2023/11/06 07:51:14;;;;;;;2.57;0.60;;;11.30;99.90;;;;;;5070417;28;20201;-56
2023/11/06 07:53:40;;;;;;;2.33;0.73;;;11.30;99.90;;;;;;5069916;28;20229;-57
2023/11/06 07:56:09;;;;;;;2.27;0.60;;;11.40;99.90;;;;;;5070249;28;20728;-56
2023/11/06 07:58:35;;;;;;;2.10;0.77;;;11.50;99.90;;;;;;5070384;28;20244;-57
2023/11/06 08:01:02;;;;;;;2.33;0.90;;;11.50;99.90;;;;;;5070452;28;20209;-56
2023/11/06 08:03:30;;;;;;;2.17;1.13;;;11.60;99.90;;;;;;5070198;28;20201;-56
2023/11/06 08:05:56;;;;;;;3.57;0.83;;;11.70;99.90;;;;;;5070310;28;20225;-57
2023/11/06 08:08:24;;;;;;;4.23;1.67;;;11.70;99.90;;;;;;5070030;28;20221;-57
2023/11/06 08:10:51;;;;;;;2.53;0.80;;;11.80;99.90;;;;;;5070710;28;20208;-57
2023/11/06 08:13:18;;;;;;;3.67;0.77;;;11.90;99.90;;;;;;5070110;28;20232;-57
2023/11/06 08:15:45;;;;;;;3.23;1.90;;;11.90;99.90;;;;;;5068047;28;20597;-59
2023/11/06 08:18:11;;;;;;;1.60;0.80;;;12.00;99.90;;;;;;5071668;28;20227;-63
2023/11/06 08:20:39;;;;;;;3.70;1.20;;;12.00;99.90;;;;;;5073407;28;20209;-57
2023/11/06 08:23:05;;;;;;;2.00;1.30;;;12.10;99.90;;;;;;5073453;28;20281;-56
2023/11/06 08:25:34;;;;;;;2.63;1.20;;;12.10;99.90;;;;;;5073919;28;20583;-56
2023/11/06 08:28:01;;;;;;;9.90;1.70;;;12.20;99.90;;;;;;5073687;28;20201;-56
2023/11/06 08:30:28;;;;;;;11.70;1.63;;;12.30;99.90;;;;;;5073582;28;20212;-56
2023/11/06 08:32:54;;;;;;;4.43;1.30;;;12.30;99.90;;;;;;5073225;28;20590;-56
2023/11/06 08:35:21;;;;;;;2.63;1.23;;;12.40;99.90;;;;;;5073868;28;20204;-56
2023/11/06 08:37:48;;;;;;;5.83;1.30;;;12.50;99.90;;;;;;5073910;28;20221;-55
2023/11/06 08:40:17;;;;;;;6.60;1.93;;;12.50;99.90;;;;;;5073567;28;20574;-56
2023/11/06 08:42:45;;;;;;;2.90;0.97;;;12.50;99.90;;;;;;5073274;28;20193;-56
2023/11/06 08:45:12;;;;;;;4.30;1.20;;;12.60;99.90;;;;;;5073189;28;20228;-56
2023/11/06 08:47:39;;;;;;;1.97;0.80;;;12.60;99.90;;;;;;5072813;28;20229;-56
2023/11/06 08:50:07;;;;;;;1.53;0.77;;;12.70;99.90;;;;;;5072934;28;20593;-56
2023/11/06 08:52:34;;;;;;;3.03;0.90;;;12.70;99.90;;;;;;5073054;28;20221;-56
2023/11/06 08:55:00;;;;;;;5.27;1.23;;;12.80;99.90;;;;;;5073281;28;20209;-56
2023/11/06 08:57:27;;;;;;;4.13;1.33;;;12.90;99.90;;;;;;5072418;28;20445;-59
2023/11/06 08:59:55;;;;;;;5.17;1.37;;;13.00;99.90;;;;;;5073073;28;20677;-58
2023/11/06 09:02:22;;;;;;;4.00;1.20;;;13.10;99.90;;;;;;5072794;28;20201;-59
2023/11/06 09:04:50;;;;;;;2.00;0.70;;;13.10;99.90;;;;;;5073437;28;20224;-58
2023/11/06 09:07:17;;;;;;;2.07;0.97;;;13.20;99.90;;;;;;5072987;28;20295;-59
2023/11/06 09:09:44;;;;;;;3.53;1.00;;;13.20;99.90;;;;;;5072657;28;20204;-60
2023/11/06 09:12:10;;;;;;;5.37;0.93;;;13.30;99.90;;;;;;5073114;28;20317;-60
2023/11/06 09:14:37;;;;;;;3.17;0.80;;;13.30;99.90;;;;;;5073019;28;20208;-60
2023/11/06 09:17:05;;;;;;;2.77;1.33;;;13.50;99.90;;;;;;5073225;28;20284;-61
2023/11/06 09:19:32;;;;;;;4.13;1.23;;;13.50;99.90;;;;;;5072870;28;20205;-61
2023/11/06 09:21:59;;;;;;;8.37;0.90;;;13.60;99.90;;;;;;5072598;28;20209;-54
2023/11/06 09:24:28;;;;;;;2.63;1.10;;;13.90;99.90;;;;;;5072982;28;20201;-55
2023/11/06 09:26:56;;;;;;;4.47;1.50;;;14.00;99.90;;;;;;5072770;28;20224;-55
2023/11/06 09:29:23;;;;;;;2.70;0.80;;;14.30;99.90;;;;;;5071837;28;20205;-58
2023/11/06 09:31:50;;;;;;;6.50;1.37;;;14.60;99.90;;;;;;5072267;28;20205;-59
2023/11/06 09:34:18;;;;;;;3.30;1.00;;;15.00;99.90;;;;;;5072300;28;20236;-58
2023/11/06 09:36:44;;;;;;;3.43;1.60;;;15.20;99.90;;;;;;5072252;28;20220;-58
2023/11/06 09:39:11;;;;;;;2.87;0.73;;;15.40;99.90;;;;;;5072324;28;20621;-58
2023/11/06 09:41:38;;;;;;;4.93;1.00;;;15.60;99.90;;;;;;5072039;28;20296;-59
2023/11/06 09:44:06;;;;;;;1.70;1.00;;;15.70;99.90;;;;;;5072006;28;20212;-59
2023/11/06 09:46:33;;;;;;;9.85;1.30;;;15.80;99.90;;;;;;5072148;28;20330;-60
2023/11/06 09:49:05;;;;;;;2.43;0.53;;;15.70;99.90;;;;;;5071805;28;20637;-59
2023/11/06 09:51:34;;;;;;;2.50;0.80;;;15.40;99.90;;;;;;5071712;28;20636;-58
2023/11/06 09:54:03;;;;;;;1.60;0.73;;;15.20;99.90;;;;;;5071837;28;20697;-58
2023/11/06 09:56:31;;;;;;;1.67;0.70;;;15.10;99.90;;;;;;5071572;28;20232;-59
2023/11/06 09:59:00;;;;;;;3.67;0.90;;;15.00;99.90;;;;;;5072130;28;20562;-59
2023/11/06 10:01:28;;;;;;;6.73;4.13;;;15.00;99.90;;;;;;5072164;28;20207;-59
2023/11/06 10:03:56;;;;;;;3.42;1.63;;;15.00;99.90;;;;;;5072424;28;20207;-58
2023/11/06 10:06:23;;;;;;;1.50;0.57;;;15.00;99.90;;;;;;5071491;28;20282;-59
2023/11/06 10:08:51;;;;;;;4.10;1.70;;;15.00;99.90;;;;;;5071536;28;20216;-63
2023/11/06 10:11:23;;;;;;;4.17;0.90;;;15.00;99.90;;;;;;5071337;28;20216;-58
2023/11/06 10:13:52;;;;;;;3.33;0.95;;;15.00;99.90;;;;;;5063534;28;20252;-57
2023/11/06 10:16:21;;;;;;;2.27;0.83;;;15.00;99.90;;;;;;5082432;22;20518;-61
2023/11/06 10:18:48;;;;;;;2.47;0.60;;;15.10;99.90;;;;;;5051886;28;20266;-60
2023/11/06 10:21:27;;;;;;;2.50;0.80;;;15.10;99.90;;;;;;5059505;28;20216;-60
2023/11/06 10:24:00;;;;;;;2.27;0.77;;;15.10;99.90;;;;;;5052258;28;20247;-62
2023/11/06 10:26:31;;;;;;;2.27;0.90;;;15.00;99.90;;;;;;5060450;28;20641;-63
2023/11/06 10:29:13;;;;;;;3.00;0.70;;;15.00;99.90;;;;;;5071560;28;20204;-60
2023/11/06 10:31:41;;;;;;;4.03;0.95;;;15.10;99.90;;;;;;5068831;28;20216;-60
2023/11/06 10:34:27;;;;;;;2.00;0.70;;;15.20;99.90;;;;;;5070513;28;20261;-60
2023/11/06 10:37:04;;;;;;;4.90;0.67;;;15.40;99.90;;;;;;5056615;28;20228;-59
2023/11/06 10:39:32;;;;;;;1.83;0.63;;;15.50;99.90;;;;;;5071500;28;20284;-58
2023/11/06 10:42:03;;;;;;;2.22;0.85;;;15.60;99.90;;;;;;5070219;28;20212;-57
2023/11/06 10:44:33;;;;;;;1.23;0.63;;;15.60;99.90;;;;;;5071223;28;20254;-58
2023/11/06 10:47:06;;;;;;;1.60;0.55;;;15.70;99.90;;;;;;5070622;28;20229;-59
2023/11/06 10:49:35;;;;;;;3.03;1.50;;;15.70;99.90;;;;;;5070832;28;20237;-60
2023/11/06 10:52:04;;;;;;;2.88;0.80;;;15.80;99.90;;;;;;5070697;28;20274;-61
2023/11/06 10:54:34;;;;;;;3.05;0.85;;;15.90;99.90;;;;;;5068890;28;20307;-60
2023/11/06 10:57:02;;;;;;;4.82;0.93;;;16.00;99.90;;;;;;5054878;28;20248;-59
2023/11/06 10:59:31;;;;;;;1.90;0.60;;;16.10;99.90;;;;;;5047257;28;20592;-60
2023/11/06 11:01:58;;;;;;;2.28;0.73;;;16.20;99.90;;;;;;5050698;28;20209;-60
2023/11/06 11:04:28;;;;;;;1.67;0.60;;;16.40;99.90;;;;;;5049987;28;20233;-59
2023/11/06 11:06:55;;;;;;;3.70;0.73;;;16.50;99.90;;;;;;5050434;28;20237;-59
2023/11/06 11:09:24;;;;;;;3.05;1.02;;;16.60;99.90;;;;;;5058332;28;20239;-60
2023/11/06 11:11:52;;;;;;;1.75;0.68;;;16.70;99.90;;;;;;5054686;28;20209;-62
2023/11/06 11:14:19;;;;;;;1.98;0.50;;;16.80;99.90;;;;;;5070714;28;20225;-58
2023/11/06 11:16:49;;;;;;;2.83;0.55;;;16.70;99.90;;;;;;5070445;28;20614;-59
2023/11/06 11:19:23;;;;;;;2.17;1.23;;;16.60;99.90;;;;;;5070783;28;20239;-59
2023/11/06 11:22:08;;;;;;;2.20;0.98;;;16.40;99.90;;;;;;5054023;28;20570;-59
2023/11/06 11:24:52;;;;;;;2.15;1.50;;;16.30;99.90;;;;;;5070403;28;20201;-59
2023/11/06 11:27:22;;;;;;;1.17;0.63;;;16.20;99.90;;;;;;5070463;28;20236;-59
2023/11/06 11:30:12;;;;;;;2.78;1.05;;;16.30;99.90;;;;;;5070461;28;20211;-59
2023/11/06 11:32:49;;;;;;;1.48;0.60;;;16.50;99.90;;;;;;5070490;28;20222;-58
2023/11/06 11:35:48;;;;;;;3.88;1.17;;;16.80;99.90;;;;;;5070849;28;20240;-59
2023/11/06 11:38:22;;;;;;;3.63;2.30;;;17.00;99.90;;;;;;5060899;28;20236;-59
2023/11/06 11:41:13;;;;;;;7.60;4.75;;;17.10;99.90;;;;;;5070594;28;20265;-59
2023/11/06 11:43:44;;;;;;;2.63;1.20;;;17.00;99.90;;;;;;5055153;28;20204;-59
2023/11/06 11:46:35;;;;;;;1.10;0.68;;;16.90;99.90;;;;;;5070614;28;20580;-59
2023/11/06 11:49:02;;;;;;;1.55;0.60;;;16.90;99.90;;;;;;5056458;28;20586;-59
2023/11/06 11:51:50;;;;;;;1.67;1.20;;;16.90;99.90;;;;;;5070572;28;20274;-59
2023/11/06 11:54:28;;;;;;;1.85;0.70;;;16.90;99.90;;;;;;5073753;28;20248;-58
2023/11/06 11:56:55;;;;;;;2.13;0.68;;;16.90;99.90;;;;;;5059160;28;20338;-58
2023/11/06 11:59:25;;;;;;;1.45;0.73;;;17.10;99.90;;;;;;5074247;28;20283;-60
2023/11/06 12:01:52;;;;;;;2.13;0.63;;;17.20;99.90;;;;;;5074489;28;20674;-59
2023/11/06 12:04:22;;;;;;;4.95;0.90;;;17.40;99.90;;;;;;5074451;28;20298;-60
2023/11/06 12:06:49;;;;;;;1.08;0.50;;;17.60;99.90;;;;;;5074030;28;20224;-59
2023/11/06 12:09:17;;;;;;;1.90;0.65;;;17.60;99.90;;;;;;5074261;28;20207;-61
2023/11/06 12:11:47;;;;;;;2.95;1.33;;;17.50;99.90;;;;;;5074205;28;20250;-59
2023/11/06 12:14:14;;;;;;;2.60;1.70;;;17.60;99.90;;;;;;5073916;28;20229;-59
2023/11/06 12:16:49;;;;;;;3.50;1.42;;;17.70;99.90;;;;;;5073925;28;20247;-59
2023/11/06 12:19:16;;;;;;;2.28;0.60;;;17.70;99.90;;;;;;5074117;28;20224;-59
2023/11/06 12:21:44;;;;;;;2.05;0.60;;;17.70;99.90;;;;;;5074020;28;20307;-60
2023/11/06 12:24:11;;;;;;;2.38;0.80;;;17.80;99.90;;;;;;5073881;28;20207;-60
2023/11/06 12:26:51;;;;;;;2.95;0.90;;;17.80;99.90;;;;;;5073473;28;20259;-59
2023/11/06 12:29:26;;;;;;;2.17;0.85;;;17.80;99.90;;;;;;5074031;28;20262;-59
2023/11/06 12:31:54;;;;;;;1.88;1.02;;;17.70;99.90;;;;;;5057686;28;20236;-60
2023/11/06 12:34:21;;;;;;;2.38;0.80;;;17.60;99.90;;;;;;5073734;28;20647;-61
2023/11/06 12:36:50;;;;;;;0.85;0.40;;;17.60;99.90;;;;;;5073507;28;20229;-59
2023/11/06 12:39:28;;;;;;;3.42;0.60;;;17.50;99.90;;;;;;5073473;28;20211;-59
2023/11/06 12:41:58;;;;;;;2.60;0.60;;;17.40;99.90;;;;;;5057902;28;20288;-59
2023/11/06 12:44:36;;;;;;;0.98;0.50;;;17.30;99.90;;;;;;5073344;28;20201;-59
2023/11/06 12:47:05;;;;;;;2.58;0.57;;;17.30;99.90;;;;;;5059776;28;20225;-59
2023/11/06 12:49:47;;;;;;;2.38;0.40;;;17.20;99.90;;;;;;5073252;28;20205;-59
2023/11/06 12:52:17;;;;;;;2.33;0.80;;;17.10;99.90;;;;;;5073555;28;20208;-58
2023/11/06 12:54:44;;;;;;;1.42;0.50;;;17.00;99.90;;;;;;5073500;28;20221;-58